Richmondale, Pennsylvania
Current Conditions -  °F | °C
As of 3:54 PM on Thursday 18 Dec 2014 (Local Time) from KAVP Reporting Station
Overcast Overcast  
Wind Chill: 29°   Ceiling: 2500
Heat Index: 36°   Visibility: 10mi
Dew Point: 25°   Wind: 9mph
Humidity: 64%   Direction: 310°NW
Pressure: 29.99"   Gusts: NA
Location:  41.6599°N, 75.4935°W
Report Text: KAVP 182054Z AUTO 31008KT 10SM OVC025 02/M04 A2999 RMK AO2 SLP163 T00221039 53005
Loading
Personal Weather Stations






























Interactive Weather Map New forecast layout! Learn more

10-Day Weather Forecast

Advertisements
Track Severe Weather on mobile